createdAt,value
2023-04-25T00:00:05.026Z,27.87
2023-04-25T00:01:05.061Z,27.41
2023-04-25T00:02:04.979Z,26.35
2023-04-25T00:03:05.015Z,28.71
2023-04-25T00:04:05.098Z,28.65
2023-04-25T00:05:05.185Z,27.26
2023-04-25T00:06:05.029Z,27.51
2023-04-25T00:07:04.943Z,28.11
2023-04-25T00:08:04.920Z,27.91
2023-04-25T00:09:04.957Z,28.78
2023-04-25T00:10:04.932Z,26.60
2023-04-25T00:11:05.061Z,28.48
2023-04-25T00:12:04.955Z,29.01
2023-04-25T00:13:04.901Z,27.42
2023-04-25T00:14:04.921Z,25.72
2023-04-25T00:15:05.547Z,20.94
2023-04-25T00:16:05.067Z,29.41
2023-04-25T00:17:04.888Z,30.99
2023-04-25T00:18:04.982Z,26.69
2023-04-25T00:19:04.867Z,30.24
2023-04-25T00:20:04.895Z,27.52
2023-04-25T00:21:05.033Z,29.98
2023-04-25T00:22:04.869Z,27.45
2023-04-25T00:23:04.821Z,28.81
2023-04-25T00:24:04.832Z,25.74
2023-04-25T00:25:04.884Z,28.69
2023-04-25T00:26:05.029Z,27.81
2023-04-25T00:27:04.838Z,26.91
2023-04-25T00:28:04.809Z,28.13
2023-04-25T00:29:04.816Z,27.61
2023-04-25T00:30:04.825Z,26.77
2023-04-25T00:31:05.102Z,27.76
2023-04-25T00:32:04.854Z,26.56
2023-04-25T00:33:04.827Z,30.93
2023-04-25T00:34:04.765Z,29.68
2023-04-25T00:35:04.807Z,29.14
2023-04-25T00:36:05.037Z,29.64
2023-04-25T00:37:04.770Z,27.75
2023-04-25T00:38:04.737Z,28.35
2023-04-25T00:39:04.746Z,27.77
2023-04-25T00:40:04.739Z,28.19
2023-04-25T00:41:05.050Z,30.13
2023-04-25T00:42:04.758Z,29.08
2023-04-25T00:43:04.751Z,27.65
2023-04-25T00:44:04.727Z,27.00
2023-04-25T00:45:04.717Z,28.73
2023-04-25T00:46:05.034Z,28.24
2023-04-25T00:47:04.850Z,27.87
2023-04-25T00:48:04.730Z,27.76
2023-04-25T00:49:04.674Z,28.00
2023-04-25T00:50:04.695Z,26.79
2023-04-25T00:51:05.071Z,25.96
2023-04-25T00:52:04.720Z,27.99
2023-04-25T00:53:04.754Z,29.02
2023-04-25T00:54:04.760Z,28.04
2023-04-25T00:55:04.798Z,26.90
2023-04-25T00:56:05.060Z,27.96
2023-04-25T00:57:04.823Z,28.03
2023-04-25T00:58:04.845Z,27.43
2023-04-25T00:59:04.844Z,27.33
2023-04-25T01:00:04.876Z,27.31
2023-04-25T01:01:04.957Z,27.01
2023-04-25T01:02:04.926Z,29.47
2023-04-25T01:03:05.066Z,29.28
2023-04-25T01:04:05.149Z,27.88
2023-04-25T01:05:04.973Z,29.19
2023-04-25T01:06:05.081Z,28.93
2023-04-25T01:07:05.089Z,30.03
2023-04-25T01:08:05.160Z,28.53
2023-04-25T01:09:05.125Z,28.30
2023-04-25T01:10:05.144Z,27.46
2023-04-25T01:11:05.560Z,26.44
2023-04-25T01:12:05.165Z,26.90
2023-04-25T01:13:05.170Z,27.46
2023-04-25T01:14:05.185Z,26.16
2023-04-25T01:15:05.214Z,26.34
2023-04-25T01:16:05.552Z,27.68
2023-04-25T01:17:05.261Z,26.06
2023-04-25T01:18:05.277Z,28.16
2023-04-25T01:19:05.266Z,26.71
2023-04-25T01:20:05.287Z,27.64
2023-04-25T01:21:05.559Z,26.14
2023-04-25T01:22:05.323Z,27.42
2023-04-25T01:23:05.336Z,28.73
2023-04-25T01:24:05.330Z,28.81
2023-04-25T01:25:05.372Z,28.63
2023-04-25T01:26:05.557Z,27.13
2023-04-25T01:27:05.527Z,27.94
2023-04-25T01:28:05.459Z,26.35
2023-04-25T01:29:05.515Z,27.26
2023-04-25T01:30:05.570Z,26.06
2023-04-25T01:31:05.573Z,27.65
2023-04-25T01:32:05.616Z,26.23
2023-04-25T01:33:05.678Z,27.39
2023-04-25T01:34:05.631Z,27.56
2023-04-25T01:35:05.612Z,26.72
2023-04-25T01:36:06.108Z,26.76
2023-04-25T01:37:05.669Z,27.26
2023-04-25T01:38:05.688Z,27.85
2023-04-25T01:39:05.726Z,26.93
2023-04-25T01:40:05.717Z,25.66
2023-04-25T01:41:06.087Z,25.84
2023-04-25T01:42:05.767Z,27.27
2023-04-25T01:43:05.793Z,25.91
2023-04-25T01:44:05.801Z,25.67
2023-04-25T01:45:05.826Z,28.06
2023-04-25T01:46:06.143Z,27.14
2023-04-25T01:47:05.867Z,28.63
2023-04-25T01:48:05.909Z,28.36
2023-04-25T01:49:05.885Z,30.14
2023-04-25T01:50:05.959Z,28.97
2023-04-25T01:51:06.090Z,30.19
2023-04-25T01:52:05.958Z,26.83
2023-04-25T01:53:05.998Z,30.53
2023-04-25T01:54:05.985Z,28.62
2023-04-25T01:55:06.053Z,28.99
2023-04-25T01:56:06.118Z,30.23
2023-04-25T01:57:06.046Z,29.55
2023-04-25T01:58:06.062Z,27.57
2023-04-25T01:59:06.098Z,26.76
2023-04-25T02:00:06.105Z,27.34
2023-04-25T02:01:06.606Z,28.49
2023-04-25T02:02:06.143Z,27.09
2023-04-25T02:03:07.313Z,26.40
2023-04-25T02:04:06.335Z,25.00
2023-04-25T02:05:06.262Z,27.75
2023-04-25T02:06:06.635Z,26.61
2023-04-25T02:07:06.338Z,28.70
2023-04-25T02:08:06.292Z,28.67
2023-04-25T02:09:06.342Z,26.70
2023-04-25T02:10:06.387Z,26.15
2023-04-25T02:11:06.392Z,29.59
2023-04-25T02:12:06.405Z,27.15
2023-04-25T02:13:06.427Z,29.38
2023-04-25T02:14:06.456Z,29.53
2023-04-25T02:15:06.490Z,28.68
2023-04-25T02:16:06.725Z,28.53
2023-04-25T02:17:06.644Z,29.78
2023-04-25T02:18:06.622Z,27.91
2023-04-25T02:19:06.545Z,27.97
2023-04-25T02:20:06.586Z,28.60
2023-04-25T02:21:07.111Z,30.38
2023-04-25T02:22:06.647Z,29.92
2023-04-25T02:23:06.648Z,26.86
2023-04-25T02:24:06.661Z,26.70
2023-04-25T02:25:06.668Z,29.33
2023-04-25T02:26:07.089Z,30.35
2023-04-25T02:27:06.721Z,28.84
2023-04-25T02:28:06.743Z,30.40
2023-04-25T02:29:06.717Z,28.94
2023-04-25T02:30:06.754Z,31.97
2023-04-25T02:31:07.124Z,30.69
2023-04-25T02:32:06.781Z,29.07
2023-04-25T02:33:06.870Z,28.61
2023-04-25T02:34:06.838Z,28.73
2023-04-25T02:35:06.955Z,28.84
2023-04-25T02:36:06.887Z,27.90
2023-04-25T02:37:06.958Z,26.77
2023-04-25T02:38:06.965Z,25.23
2023-04-25T02:39:06.972Z,26.60
2023-04-25T02:40:06.977Z,29.62
2023-04-25T02:41:07.021Z,29.92
2023-04-25T02:42:07.141Z,29.71
2023-04-25T02:43:07.093Z,30.27
2023-04-25T02:44:07.072Z,29.19
2023-04-25T02:45:07.088Z,26.09
2023-04-25T02:46:07.164Z,28.77
2023-04-25T02:47:07.251Z,30.96
2023-04-25T02:48:07.217Z,28.17
2023-04-25T02:49:07.232Z,29.15
2023-04-25T02:50:07.205Z,30.95
2023-04-25T02:51:07.296Z,27.94
2023-04-25T02:52:07.338Z,27.99
2023-04-25T02:53:07.338Z,27.52
2023-04-25T02:54:07.344Z,28.80
2023-04-25T02:55:07.386Z,27.87
2023-04-25T02:56:07.401Z,26.27
2023-04-25T02:57:07.621Z,29.09
2023-04-25T02:58:07.470Z,27.74
2023-04-25T02:59:07.452Z,29.27
2023-04-25T03:00:07.489Z,28.32
2023-04-25T03:01:07.545Z,28.58
2023-04-25T03:02:07.536Z,28.41
2023-04-25T03:03:07.625Z,30.32
2023-04-25T03:04:07.629Z,29.84
2023-04-25T03:05:07.643Z,27.50
2023-04-25T03:06:07.682Z,28.85
2023-04-25T03:07:08.114Z,27.74
2023-04-25T03:08:07.658Z,27.24
2023-04-25T03:09:07.706Z,28.08
2023-04-25T03:10:07.724Z,28.54
2023-04-25T03:11:07.739Z,27.68
2023-04-25T03:12:08.119Z,27.77
2023-04-25T03:13:07.825Z,27.83
2023-04-25T03:14:07.872Z,27.85
2023-04-25T03:15:07.868Z,28.16
2023-04-25T03:16:07.914Z,26.96
2023-04-25T03:17:08.120Z,27.57
2023-04-25T03:18:08.003Z,25.82
2023-04-25T03:19:07.973Z,26.06
2023-04-25T03:20:07.992Z,27.57
2023-04-25T03:21:08.014Z,25.00
2023-04-25T03:22:08.150Z,26.74
2023-04-25T03:23:08.069Z,27.72
2023-04-25T03:24:08.101Z,25.35
2023-04-25T03:25:08.109Z,27.61
2023-04-25T03:26:08.129Z,25.83
2023-04-25T03:27:08.637Z,27.06
2023-04-25T03:28:08.153Z,25.89
2023-04-25T03:29:08.198Z,27.97
2023-04-25T03:30:08.219Z,26.97
2023-04-25T03:31:08.224Z,28.00
2023-04-25T03:32:08.764Z,26.31
2023-04-25T03:33:08.298Z,27.13
2023-04-25T03:34:08.261Z,26.22
2023-04-25T03:35:08.301Z,27.63
2023-04-25T03:36:08.324Z,26.39
2023-04-25T03:37:08.647Z,27.78
2023-04-25T03:38:08.369Z,28.24
2023-04-25T03:39:08.399Z,26.41
2023-04-25T03:40:08.429Z,26.24
2023-04-25T03:41:08.446Z,28.54
2023-04-25T03:42:08.646Z,27.89
2023-04-25T03:43:08.492Z,27.43
2023-04-25T03:44:08.513Z,28.21
2023-04-25T03:45:08.494Z,28.72
2023-04-25T03:46:08.658Z,26.48
2023-04-25T03:47:08.646Z,28.16
2023-04-25T03:48:08.632Z,29.31
2023-04-25T03:49:08.628Z,28.14
2023-04-25T03:50:08.634Z,28.18
2023-04-25T03:51:08.661Z,25.86
2023-04-25T03:52:09.162Z,26.32
2023-04-25T03:53:08.682Z,25.31
2023-04-25T03:54:08.683Z,25.11
2023-04-25T03:55:08.731Z,27.87
2023-04-25T03:56:08.726Z,27.73
2023-04-25T03:57:09.164Z,29.38
2023-04-25T03:58:08.750Z,27.54
2023-04-25T03:59:08.765Z,27.31
2023-04-25T04:00:08.808Z,28.60
2023-04-25T04:01:09.040Z,29.99
2023-04-25T04:02:09.234Z,28.57
2023-04-25T04:03:08.937Z,25.75
2023-04-25T04:04:09.169Z,27.43
2023-04-25T04:05:09.039Z,26.53
2023-04-25T04:06:08.859Z,28.74
2023-04-25T04:07:09.655Z,28.70
2023-04-25T04:08:09.663Z,27.27
2023-04-25T04:09:08.937Z,26.40
2023-04-25T04:10:08.964Z,27.38
2023-04-25T04:11:08.971Z,28.19
2023-04-25T04:12:09.180Z,25.21
2023-04-25T04:13:09.008Z,26.66
2023-04-25T04:14:09.033Z,28.75
2023-04-25T04:15:09.073Z,26.09
2023-04-25T04:16:09.129Z,26.99
2023-04-25T04:17:09.110Z,27.96
2023-04-25T04:18:09.169Z,26.09
2023-04-25T04:19:09.126Z,26.88
2023-04-25T04:20:09.151Z,28.28
2023-04-25T04:21:09.225Z,27.59
2023-04-25T04:22:09.188Z,28.07
2023-04-25T04:23:09.220Z,28.45
2023-04-25T04:24:09.271Z,31.01
2023-04-25T04:25:09.298Z,29.14
2023-04-25T04:26:09.313Z,27.41
2023-04-25T04:27:09.641Z,29.15
2023-04-25T04:28:09.331Z,29.54
2023-04-25T04:29:09.362Z,28.84
2023-04-25T04:30:09.400Z,27.61
2023-04-25T04:31:09.412Z,26.95
2023-04-25T04:32:09.636Z,28.75
2023-04-25T04:33:09.446Z,29.03
2023-04-25T04:34:09.454Z,29.12
2023-04-25T04:35:09.469Z,27.99
2023-04-25T04:36:09.494Z,26.04
2023-04-25T04:37:09.692Z,28.78
2023-04-25T04:38:09.556Z,25.03
2023-04-25T04:39:09.567Z,28.46
2023-04-25T04:40:09.576Z,25.76
2023-04-25T04:41:09.585Z,28.52
2023-04-25T04:42:09.608Z,26.33
2023-04-25T04:43:09.605Z,26.64
2023-04-25T04:44:09.634Z,28.85
2023-04-25T04:45:09.672Z,28.68
2023-04-25T04:46:09.736Z,28.64
2023-04-25T04:47:10.192Z,30.14
2023-04-25T04:48:09.820Z,29.70
2023-04-25T04:49:09.745Z,27.97
2023-04-25T04:50:09.748Z,29.22
2023-04-25T04:51:09.742Z,28.51
2023-04-25T04:52:10.165Z,26.94
2023-04-25T04:53:09.796Z,28.47
2023-04-25T04:54:09.822Z,27.82
2023-04-25T04:55:09.856Z,26.90
2023-04-25T04:56:09.850Z,27.44
2023-04-25T04:57:10.149Z,29.70
2023-04-25T04:58:09.961Z,27.58
2023-04-25T04:59:09.963Z,25.40
2023-04-25T05:00:09.995Z,26.23
2023-04-25T05:01:10.088Z,25.00
2023-04-25T05:02:10.189Z,27.44
2023-04-25T05:03:10.323Z,29.80
2023-04-25T05:04:10.243Z,27.65
2023-04-25T05:05:10.130Z,25.74
2023-04-25T05:06:10.126Z,27.53
2023-04-25T05:07:10.199Z,28.65
2023-04-25T05:08:10.161Z,28.40
2023-04-25T05:09:10.207Z,29.81
2023-04-25T05:10:10.242Z,29.81
2023-04-25T05:11:10.231Z,26.65
2023-04-25T05:12:10.710Z,27.56
2023-04-25T05:13:10.283Z,28.68
2023-04-25T05:14:10.315Z,30.12
2023-04-25T05:15:10.282Z,26.90
2023-04-25T05:16:10.357Z,26.71
2023-04-25T05:17:10.687Z,28.17
2023-04-25T05:18:10.486Z,26.18
2023-04-25T05:19:10.392Z,25.87
2023-04-25T05:20:10.445Z,28.48
2023-04-25T05:21:10.452Z,29.39
2023-04-25T05:22:10.705Z,28.79
2023-04-25T05:23:10.449Z,28.75
2023-04-25T05:24:10.511Z,30.16
2023-04-25T05:25:10.534Z,29.68
2023-04-25T05:26:10.537Z,30.88
2023-04-25T05:27:10.715Z,31.00
2023-04-25T05:28:10.593Z,32.01
2023-04-25T05:29:10.634Z,29.08
2023-04-25T05:30:10.609Z,30.37
2023-04-25T05:31:10.634Z,30.27
2023-04-25T05:32:10.768Z,29.91
2023-04-25T05:33:10.690Z,31.86
2023-04-25T05:34:10.723Z,28.71
2023-04-25T05:35:10.792Z,27.82
2023-04-25T05:36:10.754Z,26.81
2023-04-25T05:37:11.189Z,28.62
2023-04-25T05:38:10.754Z,29.46
2023-04-25T05:39:10.807Z,29.33
2023-04-25T05:40:10.813Z,30.24
2023-04-25T05:41:10.834Z,29.32
2023-04-25T05:42:10.847Z,28.70
2023-04-25T05:43:10.853Z,30.66
2023-04-25T05:44:10.875Z,30.16
2023-04-25T05:45:10.899Z,27.86
2023-04-25T05:46:10.921Z,28.83
2023-04-25T05:47:10.904Z,29.76
2023-04-25T05:48:11.287Z,26.85
2023-04-25T05:49:11.072Z,27.79
2023-04-25T05:50:11.184Z,30.56
2023-04-25T05:51:11.210Z,28.86
2023-04-25T05:52:11.190Z,29.46
2023-04-25T05:53:11.690Z,29.86
2023-04-25T05:54:11.237Z,26.85
2023-04-25T05:55:11.256Z,30.30
2023-04-25T05:56:11.278Z,29.29
2023-04-25T05:57:11.291Z,26.41
2023-04-25T05:58:11.350Z,27.92
2023-04-25T05:59:11.384Z,32.14
2023-04-25T06:00:11.385Z,26.96
2023-04-25T06:01:11.408Z,30.84
2023-04-25T06:02:11.585Z,36.21
2023-04-25T06:03:11.819Z,35.82
2023-04-25T06:04:11.726Z,43.99
2023-04-25T06:05:11.706Z,44.48
2023-04-25T06:06:11.519Z,41.81
2023-04-25T06:07:11.559Z,25.72
2023-04-25T06:08:11.560Z,42.88
2023-04-25T06:09:13.284Z,49.45
2023-04-25T06:10:11.577Z,56.62
2023-04-25T06:11:11.554Z,51.95
2023-04-25T06:12:11.546Z,53.69
2023-04-25T06:13:11.562Z,56.26
2023-04-25T06:14:11.515Z,56.09
2023-04-25T06:15:24.415Z,55.82
2023-04-25T06:16:12.580Z,56.28
2023-04-25T06:17:11.515Z,56.80
2023-04-25T06:18:11.695Z,56.70
2023-04-25T06:19:11.483Z,60.40
2023-04-25T06:20:11.501Z,59.97
2023-04-25T06:21:11.467Z,90.21
2023-04-25T06:22:11.467Z,98.12
2023-04-25T06:23:11.736Z,81.69
2023-04-25T06:24:11.442Z,80.67
2023-04-25T06:25:11.438Z,73.91
2023-04-25T06:26:11.447Z,80.21
2023-04-25T06:27:11.420Z,78.46
2023-04-25T06:28:11.683Z,78.04
2023-04-25T06:29:11.456Z,146.21
2023-04-25T06:30:11.425Z,130.72
2023-04-25T06:31:11.484Z,107.47
2023-04-25T06:32:11.430Z,107.01
2023-04-25T06:33:11.527Z,99.47
2023-04-25T06:34:11.390Z,92.45
2023-04-25T06:35:11.388Z,99.28
2023-04-25T06:36:11.372Z,100.23
2023-04-25T06:37:11.354Z,102.95
2023-04-25T06:38:11.363Z,106.48
2023-04-25T06:39:11.374Z,97.72
2023-04-25T06:40:11.353Z,96.93
2023-04-25T06:41:11.366Z,114.20
2023-04-25T06:42:11.455Z,99.81
2023-04-25T06:43:11.490Z,108.25
2023-04-25T06:44:11.544Z,101.36
2023-04-25T06:45:11.569Z,105.51
2023-04-25T06:46:11.713Z,100.19
2023-04-25T06:47:11.729Z,107.58
2023-04-25T06:48:11.782Z,108.03
2023-04-25T06:49:11.802Z,103.34
2023-04-25T06:50:11.887Z,100.26
2023-04-25T06:51:11.930Z,106.43
2023-04-25T06:52:12.006Z,103.83
2023-04-25T06:53:12.031Z,92.00
2023-04-25T06:54:12.051Z,149.72
2023-04-25T06:55:12.126Z,116.79
2023-04-25T06:56:12.172Z,101.33
2023-04-25T06:57:12.199Z,97.61
2023-04-25T06:58:12.731Z,79.29
2023-04-25T06:59:12.311Z,82.88
2023-04-25T07:00:12.346Z,80.47
2023-04-25T07:01:12.450Z,74.12
2023-04-25T07:02:12.553Z,81.29
2023-04-25T07:03:12.813Z,75.23
2023-04-25T07:04:12.780Z,69.46
2023-04-25T07:05:12.647Z,66.66
2023-04-25T07:06:12.675Z,72.18
2023-04-25T07:07:12.714Z,70.53
2023-04-25T07:08:13.220Z,73.94
2023-04-25T07:09:12.805Z,75.54
2023-04-25T07:10:12.870Z,72.98
2023-04-25T07:11:12.956Z,61.46
2023-04-25T07:12:12.995Z,60.98
2023-04-25T07:13:13.231Z,68.15
2023-04-25T07:14:13.134Z,47.31
2023-04-25T07:15:13.149Z,68.12
2023-04-25T07:16:13.275Z,66.46
2023-04-25T07:17:13.270Z,68.02
2023-04-25T07:18:13.336Z,63.40
2023-04-25T07:19:13.394Z,65.61
2023-04-25T07:20:13.478Z,66.29
2023-04-25T07:21:13.494Z,64.81
2023-04-25T07:22:13.553Z,67.42
2023-04-25T07:23:13.750Z,65.42
2023-04-25T07:24:13.672Z,62.02
2023-04-25T07:25:13.696Z,64.42
2023-04-25T07:26:13.826Z,68.60
2023-04-25T07:27:13.834Z,66.58
2023-04-25T07:28:13.854Z,65.06
2023-04-25T07:29:13.939Z,61.68
2023-04-25T07:30:14.024Z,66.24
2023-04-25T07:31:14.051Z,48.08
2023-04-25T07:32:14.249Z,55.29
2023-04-25T07:33:14.232Z,60.24
2023-04-25T07:34:14.260Z,67.82
2023-04-25T07:35:14.277Z,76.92
2023-04-25T07:36:14.325Z,58.39
2023-04-25T07:37:14.431Z,69.43
2023-04-25T07:38:14.476Z,67.29
2023-04-25T07:39:14.527Z,68.50
2023-04-25T07:40:14.571Z,0.00
2023-04-25T07:41:14.577Z,62.72
2023-04-25T07:42:14.578Z,109.79
2023-04-25T07:43:14.759Z,102.44
2023-04-25T07:44:14.641Z,110.78
2023-04-25T07:45:14.681Z,87.38
2023-04-25T07:46:14.708Z,79.54
2023-04-25T07:47:14.664Z,78.98
2023-04-25T07:48:14.802Z,83.36
2023-04-25T07:49:14.690Z,88.33
2023-04-25T07:50:14.832Z,91.51
2023-04-25T07:51:14.811Z,91.90
2023-04-25T07:52:14.830Z,93.30
2023-04-25T07:53:15.236Z,94.42
2023-04-25T07:54:14.833Z,94.15
2023-04-25T07:55:14.844Z,97.95
2023-04-25T07:56:14.833Z,98.27
2023-04-25T07:57:14.906Z,95.12
2023-04-25T07:58:15.289Z,96.41
2023-04-25T07:59:14.934Z,95.41
2023-04-25T08:00:14.945Z,93.86
2023-04-25T08:01:14.992Z,94.74
2023-04-25T08:02:15.047Z,95.15
2023-04-25T08:03:15.985Z,93.64
2023-04-25T08:04:15.140Z,94.88
2023-04-25T08:05:15.157Z,93.63
2023-04-25T08:06:15.232Z,93.59
2023-04-25T08:07:15.093Z,94.28
2023-04-25T08:08:15.289Z,93.53
2023-04-25T08:09:15.122Z,91.31
2023-04-25T08:10:15.104Z,95.08
2023-04-25T08:11:15.165Z,94.79
2023-04-25T08:12:15.176Z,93.63
2023-04-25T08:13:15.283Z,90.81
2023-04-25T08:14:15.213Z,89.43
2023-04-25T08:15:15.222Z,88.50
2023-04-25T08:16:15.373Z,90.92
2023-04-25T08:17:15.279Z,88.55
2023-04-25T08:18:17.750Z,87.72
2023-04-25T08:19:15.554Z,86.12
2023-04-25T08:20:15.584Z,81.15
2023-04-25T08:21:15.601Z,87.79
2023-04-25T08:22:15.621Z,84.42
2023-04-25T08:23:15.744Z,85.73
2023-04-25T08:24:15.679Z,85.88
2023-04-25T08:25:15.655Z,83.45
2023-04-25T08:26:15.681Z,82.96
2023-04-25T08:27:15.721Z,83.22
2023-04-25T08:28:15.687Z,85.20
2023-04-25T08:29:15.750Z,82.84
2023-04-25T08:30:15.749Z,83.65
2023-04-25T08:31:15.810Z,81.32
2023-04-25T08:32:15.770Z,78.24
2023-04-25T08:33:15.903Z,80.39
2023-04-25T08:34:15.834Z,80.11
2023-04-25T08:35:15.881Z,78.62
2023-04-25T08:36:24.528Z,78.39
2023-04-25T08:37:16.909Z,78.60
2023-04-25T08:38:15.898Z,78.46
2023-04-25T08:39:15.886Z,78.92
2023-04-25T08:40:15.904Z,77.42
2023-04-25T08:41:15.861Z,80.24
2023-04-25T08:42:15.860Z,77.02
2023-04-25T08:43:15.925Z,75.96
2023-04-25T08:44:15.860Z,77.26
2023-04-25T08:45:15.841Z,77.12
2023-04-25T08:46:15.839Z,74.94
2023-04-25T08:47:15.822Z,73.09
2023-04-25T08:48:15.882Z,72.93
2023-04-25T08:49:15.845Z,73.42
2023-04-25T08:50:15.893Z,74.86
2023-04-25T08:51:15.930Z,73.80
2023-04-25T08:52:15.965Z,72.49
2023-04-25T08:53:16.001Z,71.50
2023-04-25T08:54:30.262Z,71.53
2023-04-25T08:55:17.011Z,71.74
2023-04-25T08:56:15.996Z,71.71
2023-04-25T08:57:16.008Z,70.63
2023-04-25T08:58:16.018Z,69.74
2023-04-25T08:59:16.295Z,71.08
2023-04-25T09:00:15.978Z,72.74
2023-04-25T09:01:16.023Z,70.20
2023-04-25T09:02:16.085Z,69.07
2023-04-25T09:03:16.396Z,68.18
2023-04-25T09:04:16.411Z,67.18
2023-04-25T09:05:16.365Z,67.87
2023-04-25T09:06:16.200Z,65.75
2023-04-25T09:07:16.231Z,67.33
2023-04-25T09:08:16.289Z,62.42
2023-04-25T09:09:16.811Z,65.19
2023-04-25T09:10:16.370Z,62.52
2023-04-25T09:11:16.403Z,63.73
2023-04-25T09:12:16.440Z,62.20
2023-04-25T09:13:16.475Z,61.51
2023-04-25T09:14:16.773Z,61.61
2023-04-25T09:16:16.635Z,59.43
2023-04-25T09:17:16.652Z,57.64
2023-04-25T09:18:16.628Z,58.47
2023-04-25T09:19:16.808Z,57.95
2023-04-25T09:20:16.607Z,60.23
2023-04-25T09:21:16.602Z,57.66
2023-04-25T09:22:16.581Z,56.63
2023-04-25T09:23:16.548Z,54.18
2023-04-25T09:24:16.783Z,52.32
2023-04-25T09:25:16.559Z,54.71
2023-04-25T09:26:16.553Z,52.17
2023-04-25T09:27:16.562Z,51.49
2023-04-25T09:28:16.526Z,50.20
2023-04-25T09:29:16.790Z,52.76
2023-04-25T09:30:16.555Z,53.54
2023-04-25T09:31:16.545Z,52.38
2023-04-25T09:32:16.626Z,50.43
2023-04-25T09:33:16.603Z,50.90
2023-04-25T09:34:16.828Z,52.02
2023-04-25T09:35:16.516Z,50.31
2023-04-25T09:36:16.527Z,51.03
2023-04-25T09:37:16.486Z,48.63
2023-04-25T09:38:16.493Z,46.87
2023-04-25T09:39:16.808Z,49.14
2023-04-25T09:40:16.478Z,46.90
2023-04-25T09:41:17.880Z,44.42
2023-04-25T09:42:16.457Z,47.38
2023-04-25T09:43:16.471Z,48.50
2023-04-25T09:44:16.453Z,46.07
2023-04-25T09:45:16.443Z,48.40
2023-04-25T09:46:16.487Z,46.79
2023-04-25T09:47:16.456Z,50.82
2023-04-25T09:48:16.377Z,51.57
2023-04-25T09:49:16.823Z,54.27
2023-04-25T09:50:16.407Z,56.04
2023-04-25T09:51:16.387Z,60.88
2023-04-25T09:52:16.363Z,60.76
2023-04-25T09:53:16.349Z,59.09
2023-04-25T09:54:16.810Z,57.02
2023-04-25T09:55:16.362Z,0.00
2023-04-25T09:56:16.377Z,32.22
2023-04-25T09:57:16.355Z,18.06
2023-04-25T09:58:16.321Z,0.00
2023-04-25T09:59:16.915Z,7.72
2023-04-25T10:00:16.453Z,35.00
2023-04-25T10:01:16.402Z,30.00
2023-04-25T10:02:16.402Z,11.22
2023-04-25T10:03:16.443Z,20.49
2023-04-25T10:04:16.964Z,25.00
2023-04-25T10:05:16.555Z,34.38
2023-04-25T10:06:16.406Z,48.47
2023-04-25T10:07:16.443Z,55.15
2023-04-25T10:08:16.469Z,64.83
2023-04-25T10:09:16.514Z,54.75
2023-04-25T10:10:16.522Z,25.98
2023-04-25T10:11:16.535Z,19.55
2023-04-25T10:12:16.612Z,23.06
2023-04-25T10:13:16.559Z,24.37
2023-04-25T10:14:16.594Z,46.54
2023-04-25T10:15:16.688Z,69.90
2023-04-25T10:16:16.675Z,73.54
2023-04-25T10:17:16.672Z,93.95
2023-04-25T10:18:16.714Z,93.36
2023-04-25T10:19:16.729Z,100.51
2023-04-25T10:20:16.813Z,102.47
2023-04-25T10:21:16.806Z,86.51
2023-04-25T10:22:16.801Z,58.35
2023-04-25T10:23:16.845Z,72.48
2023-04-25T10:24:16.905Z,121.91
2023-04-25T10:25:16.890Z,106.44
2023-04-25T10:26:16.935Z,124.16
2023-04-25T10:27:16.953Z,127.88
2023-04-25T10:28:16.983Z,83.98
2023-04-25T10:29:17.068Z,84.68
2023-04-25T10:30:17.465Z,80.03
2023-04-25T10:31:17.203Z,79.80
2023-04-25T10:32:17.187Z,70.13
2023-04-25T10:33:17.124Z,83.24
2023-04-25T10:34:17.350Z,69.35
2023-04-25T10:35:17.170Z,58.57
2023-04-25T10:36:17.174Z,56.55
2023-04-25T10:37:17.245Z,64.03
2023-04-25T10:38:17.243Z,81.70
2023-04-25T10:39:17.809Z,84.06
2023-04-25T10:40:17.251Z,76.89
2023-04-25T10:41:17.270Z,81.58
2023-04-25T10:42:17.308Z,91.54
2023-04-25T10:43:17.339Z,94.63
2023-04-25T10:44:17.830Z,108.15
2023-04-25T10:45:17.442Z,150.99
2023-04-25T10:46:17.478Z,131.74
2023-04-25T10:47:17.633Z,141.65
2023-04-25T10:48:17.468Z,160.42
2023-04-25T10:49:17.809Z,158.12
2023-04-25T10:50:17.541Z,108.34
2023-04-25T10:51:17.570Z,56.75
2023-04-25T10:52:17.575Z,41.83
2023-04-25T10:53:17.606Z,128.57
2023-04-25T10:54:17.858Z,125.73
2023-04-25T10:55:17.669Z,93.24
2023-04-25T10:56:17.729Z,152.11
2023-04-25T10:57:17.736Z,152.18
2023-04-25T10:58:17.768Z,160.31
2023-04-25T10:59:17.833Z,157.12
2023-04-25T11:00:17.842Z,156.77
2023-04-25T11:01:17.904Z,146.59
2023-04-25T11:02:18.111Z,130.46
2023-04-25T11:03:18.079Z,153.49
2023-04-25T11:04:18.579Z,114.14
2023-04-25T11:05:19.610Z,156.41
2023-04-25T11:06:18.979Z,157.14
2023-04-25T11:07:17.946Z,150.69
2023-04-25T11:08:17.917Z,148.00
2023-04-25T11:09:18.343Z,171.69
2023-04-25T11:10:17.903Z,164.83
2023-04-25T11:11:17.930Z,102.38
2023-04-25T11:12:17.923Z,148.74
2023-04-25T11:13:17.927Z,119.56
2023-04-25T11:14:18.341Z,91.87
2023-04-25T11:15:17.891Z,144.34
2023-04-25T11:16:23.648Z,124.50
2023-04-25T11:17:18.926Z,114.78
2023-04-25T11:18:17.993Z,127.56
2023-04-25T11:19:17.885Z,132.58
2023-04-25T11:20:18.349Z,139.77
2023-04-25T11:21:17.860Z,136.86
2023-04-25T11:22:17.895Z,158.31
2023-04-25T11:23:17.860Z,146.86
2023-04-25T11:24:17.859Z,108.33
2023-04-25T11:25:18.344Z,118.48
2023-04-25T11:26:17.882Z,141.68
2023-04-25T11:27:17.863Z,151.71
2023-04-25T11:28:17.824Z,150.09
2023-04-25T11:29:17.826Z,152.34
2023-04-25T11:30:17.922Z,137.55
2023-04-25T11:31:17.810Z,126.99
2023-04-25T11:32:18.234Z,135.85
2023-04-25T11:33:17.878Z,108.99
2023-04-25T11:34:17.806Z,69.39
2023-04-25T11:35:17.894Z,147.04
2023-04-25T11:36:17.820Z,115.22
2023-04-25T11:37:17.796Z,141.65
2023-04-25T11:38:17.767Z,119.56
2023-04-25T11:39:17.755Z,139.12
2023-04-25T11:40:17.789Z,134.26
2023-04-25T11:41:17.787Z,136.70
2023-04-25T11:42:17.795Z,151.95
2023-04-25T11:43:19.538Z,159.29
2023-04-25T11:44:17.737Z,159.72
2023-04-25T11:45:17.747Z,161.86
2023-04-25T11:46:17.766Z,164.03
2023-04-25T11:47:17.688Z,161.06
2023-04-25T11:48:17.909Z,132.53
2023-04-25T11:49:17.701Z,146.98
2023-04-25T11:50:17.691Z,141.97
2023-04-25T11:51:17.687Z,142.53
2023-04-25T11:52:17.765Z,147.98
2023-04-25T11:53:17.656Z,143.46
2023-04-25T11:54:17.656Z,157.16
2023-04-25T11:55:17.881Z,168.30
2023-04-25T11:56:17.640Z,476.65
2023-04-25T11:57:17.675Z,500.00
2023-04-25T11:58:17.637Z,500.00
2023-04-25T11:59:17.630Z,500.00
2023-04-25T12:00:18.708Z,404.18
2023-04-25T12:01:17.626Z,313.22
2023-04-25T12:02:17.729Z,302.41
2023-04-25T12:03:17.831Z,306.81
2023-04-25T12:04:17.856Z,303.99
2023-04-25T12:05:31.396Z,272.01
2023-04-25T12:06:18.816Z,267.94
2023-04-25T12:07:17.673Z,259.73
2023-04-25T12:08:17.586Z,262.14
2023-04-25T12:09:17.570Z,266.21
2023-04-25T12:10:17.850Z,263.50
2023-04-25T12:11:17.539Z,249.68
2023-04-25T12:12:17.544Z,244.96
2023-04-25T12:13:17.557Z,242.47
2023-04-25T12:14:17.553Z,241.31
2023-04-25T12:15:17.502Z,229.54
2023-04-25T12:16:17.532Z,225.53
2023-04-25T12:17:17.492Z,221.37
2023-04-25T12:18:17.539Z,218.76
2023-04-25T12:19:17.503Z,217.52
2023-04-25T12:20:17.897Z,213.67
2023-04-25T12:21:17.485Z,214.83
2023-04-25T12:22:17.453Z,212.35
2023-04-25T12:23:17.499Z,212.48
2023-04-25T12:24:17.473Z,211.93
2023-04-25T12:25:17.891Z,209.28
2023-04-25T12:26:17.432Z,207.46
2023-04-25T12:27:17.422Z,204.83
2023-04-25T12:28:17.452Z,204.71
2023-04-25T12:29:17.402Z,203.85
2023-04-25T12:30:17.415Z,203.18
2023-04-25T12:31:17.467Z,199.41
2023-04-25T12:32:17.415Z,192.90
2023-04-25T12:33:17.461Z,193.71
2023-04-25T12:34:17.385Z,181.71
2023-04-25T12:35:17.933Z,177.63
2023-04-25T12:36:17.390Z,177.36
2023-04-25T12:37:17.430Z,178.47
2023-04-25T12:38:17.381Z,179.32
2023-04-25T12:39:17.345Z,178.69
2023-04-25T12:40:17.395Z,179.73
2023-04-25T12:41:17.369Z,176.71
2023-04-25T12:42:17.340Z,178.29
2023-04-25T12:43:17.327Z,170.10
2023-04-25T12:44:17.328Z,177.32
2023-04-25T12:45:17.383Z,175.86
2023-04-25T12:46:17.370Z,173.96
2023-04-25T12:47:17.340Z,172.28
2023-04-25T12:48:17.392Z,169.93